South Dorset, Vermont
Current Conditions -  °F | °C
As of 3:35 AM on Thursday 27 Nov 2014 (Local Time) from KRUT Reporting Station
Overcast Overcast  
Wind Chill: 19°   Ceiling: 600
Heat Index: 27°   Visibility: 4mi
Dew Point: 25°   Wind: 7mph
Humidity: 93%   Direction: 320°NW
Pressure: 29.87"   Gusts: NA
Location:  43.2618°N, 73.0663°W
Report Text: KRUT 270835Z 32006KT 4SM OVC006 M03/M04 A2987 RMK AO1
Loading
Personal Weather Stations






























Interactive Weather Map New forecast layout! Learn more

10-Day Weather Forecast

Advertisements
Track Severe Weather on mobile